Pagrindinis puslapis
METAR-TAF:

METAR-TAF

Oro uostai :

Lutselk'e, Šiaurės Vakarai, Kanada

platuma: 62-25N, ilguma: 110-40W, Aukštis: 179 m

Dabartinis oras

Ataskaita buvo paskelbta 10 valandos ir 46 minutes, ne 00:00 UTC
Vėjas 9 kt iš Rytų/Šiaurės Rytų
Temperatūra 8°C
Drėgmė 46%
Slėgis 1019 hPa
Matomumas: 40.2 km
Mažai debesys ne aukštis 15000 ft
Mažai debesys ne aukštis 20000 ft

METAR: CYLK 050000Z 06009KT 25SM FEW150 FEW200 08/M03 A3008 RMK AC1CI1 0/LAST STFD OB NEXT 051400 SLP198

Laikas: 04:46 (10:46 UTC)

Prognozė

Ataskaita buvo paskelbta 16 valandos ir 8 minutes, ne 18:38 UTC
Prognozė galioja nuo 04 metu 19 UTC su 04 metu 24 UTC
Vėjas 5 kt iš Šiaurės/Šiaurės Rytų
Matomumas: 10 km
Išsisklaidę debesys ne aukštis 4000 ft

TAF: CYLK 041838Z 0419/0424 02005KT P6SM SCT040 RMK NXT FCST WILL BE ISSUED AT 051545Z

Orai ataskaitas ir orų prognozės (METAR, TAF).

turimą stotys yra geltonos ir raudonos taškus žemėlapyje.

Perkelti pele per norėdami pamatyti stoties vardą.

Tada spustelėkite, norėdami matyti oro stebėjimo ir prognozės.

Norėdami pakeisti žemėlapį: spustelėkite ant žalios mygtukų su juodo kryžiaus žemyn,; žalią mygtuką su brūkšneliu, jei norite nutolinti; arba žalių rodyklių gretimoms žemėlapius.


METAR-TAF: